メインページ
METAR-TAF:

METAR-TAF

空港 :

カーブル国際空港

カーブル, アフガニスタン

緯度: 34-38N, 経度: 069-12E, 海抜: 1789m

現時点の気象観測

当レポートは19分前の23:50(UTC)に作成
南/南東の風 4kt
気温 24°C
湿度 69%
気圧 1010 hPa
視程10km以上
高度10000ftの雲は散在している

METAR: OAKB 162350Z 16004KT 9999 SCT100 24/18 Q1010 NOSIG RMK A2985 BLU BLU

時間: 04:39 (00:09 UTC)

予報

当レポートは1時間4分前の23:05(UTC)に作成
予報は17日の 00時(UTC)から 17日の 24時(UTC)まで有効
変向風 2kt
視程10km以上
1,500メートル以下は雲なし、積乱雲なし
確率 40%
17日の 01時(UTC)から 17日の 05時(UTC)まで
視程: 6000m
17日の 09時(UTC)から 17日の 11時(UTC)まで徐々に
北/北東の風 8kt
高度10000ftの雲は散在している
確率 40% :
17日の 11時(UTC)から 17日の 16時(UTC)まで一時的に
の風 12kt、最大22ktの突風を伴う
視程: 7000m
高度5000ftの雲はほとんどない, 積乱雲.
高度8000ftの雲は散在している
17日の 17時(UTC)から 17日の 19時(UTC)まで徐々に
変向風 2kt
視程10km以上
1,500メートル以下は雲なし、積乱雲なし

TAF: OAKB 162305Z 1700/1724 VRB02KT CAVOK PROB40 1701/1705 6000 BECMG 1709/1711 03008KT SCT100 PROB40 TEMPO 1711/1716 08012G22KT 7000 FEW050CB SCT080 BECMG 1717/1719 VRB02KT CAVOK

4,000以上の空港の気象観測と天気予報(METAR報とTAF報)

利用可能な観測所は地図上に黄色い丸と赤い丸で示す。

丸の上にカーソルを重ねると観測所名を参照できる。

次にクリックすると気象観測と天気予報を参照できる。

マップの切り替え:黒色「×」印の緑ボタンをクリックして拡大、「-」印の緑ボタンをクリックして縮小、緑色の三角印をクリックして隣りの地図に切り替え


METAR-TAF: